Time;durP1;ratioP1;P1;durP2;ratioP2;P2;SDS_P1;SDS_P2;PMS_P1;PMS_P2;Temp;Humidity;BMP_temperature;BMP_pressure;BME280_temperature;BME280_humidity;BME280_pressure;Samples;Min_cycle;Max_cycle;Signal;HPM_P1;HPM_P2
2021/10/19 00:01:19;;;;;;;11.23;6.43;;;;;;;;;;5147272;27;20537;-82
2021/10/19 00:03:49;;;;;;;9.30;6.13;;;;;;;;;;5146823;27;20904;-82
2021/10/19 00:06:17;;;;;;;8.13;5.20;;;;;;;;;;5146051;27;20497;-81
2021/10/19 00:08:45;;;;;;;9.10;5.57;;;;;;;;;;5147285;27;20444;-83
2021/10/19 00:11:13;;;;;;;10.00;5.90;;;;;;;;;;5144903;27;20774;-81
2021/10/19 00:13:41;;;;;;;14.10;6.40;;;;;;;;;;5144682;27;20475;-82
2021/10/19 00:16:10;;;;;;;9.33;6.10;;;;;;;;;;5142833;27;21103;-80
2021/10/19 00:18:37;;;;;;;9.67;5.87;;;;;;;;;;5144761;27;20806;-81
2021/10/19 00:21:06;;;;;;;9.83;5.97;;;;;;;;;;5143828;27;20541;-81
2021/10/19 00:23:34;;;;;;;9.30;6.10;;;;;;;;;;5145620;27;20449;-81
2021/10/19 00:26:02;;;;;;;9.37;6.00;;;;;;;;;;5145571;27;20458;-80
2021/10/19 00:28:29;;;;;;;9.67;5.50;;;;;;;;;;5145159;27;20445;-82
2021/10/19 00:30:57;;;;;;;8.77;6.00;;;;;;;;;;5143535;27;20533;-81
2021/10/19 00:33:25;;;;;;;8.47;6.40;;;;;;;;;;5145793;27;20460;-82
2021/10/19 00:35:52;;;;;;;7.77;5.77;;;;;;;;;;5142229;27;20445;-80
2021/10/19 00:38:21;;;;;;;10.27;5.90;;;;;;;;;;5144718;27;20484;-82
2021/10/19 00:40:49;;;;;;;7.47;6.20;;;;;;;;;;5143227;27;20483;-82
2021/10/19 00:43:17;;;;;;;8.53;6.33;;;;;;;;;;5143356;27;20536;-82
2021/10/19 00:45:45;;;;;;;9.97;6.80;;;;;;;;;;5146889;27;20481;-81
2021/10/19 00:48:15;;;;;;;8.73;5.83;;;;;;;;;;5145199;27;20453;-82
2021/10/19 00:50:43;;;;;;;10.57;6.23;;;;;;;;;;5146546;27;20446;-82
2021/10/19 00:53:11;;;;;;;15.67;7.30;;;;;;;;;;5146053;27;20446;-82
2021/10/19 00:55:40;;;;;;;9.83;6.20;;;;;;;;;;5144832;27;20456;-81
2021/10/19 00:58:08;;;;;;;9.30;6.17;;;;;;;;;;5145304;27;20541;-82
2021/10/19 01:00:36;;;;;;;9.27;6.57;;;;;;;;;;5145483;27;20924;-82
2021/10/19 01:03:10;;;;;;;12.17;6.57;;;;;;;;;;5147046;27;20502;-82
2021/10/19 01:05:37;;;;;;;9.53;5.90;;;;;;;;;;5144691;27;20438;-82
2021/10/19 01:08:06;;;;;;;11.33;7.03;;;;;;;;;;5143829;27;20532;-82
2021/10/19 01:10:33;;;;;;;9.83;6.53;;;;;;;;;;5144639;27;20467;-81
2021/10/19 01:13:03;;;;;;;12.33;6.93;;;;;;;;;;5145560;27;20516;-82
2021/10/19 01:15:32;;;;;;;9.90;7.03;;;;;;;;;;5144442;27;20881;-82
2021/10/19 01:18:03;;;;;;;11.10;6.57;;;;;;;;;;5145810;27;20505;-82
2021/10/19 01:20:33;;;;;;;11.07;8.40;;;;;;;;;;5146042;27;20489;-80
2021/10/19 01:23:01;;;;;;;9.70;7.20;;;;;;;;;;5145138;27;20520;-80
2021/10/19 01:25:30;;;;;;;9.50;6.27;;;;;;;;;;5144616;27;20483;-80
2021/10/19 01:27:58;;;;;;;10.17;7.03;;;;;;;;;;5143978;27;20726;-80
2021/10/19 01:30:26;;;;;;;11.67;7.93;;;;;;;;;;5144290;27;20453;-81
2021/10/19 01:32:55;;;;;;;11.43;7.17;;;;;;;;;;5144235;27;20484;-80
2021/10/19 01:35:33;;;;;;;10.43;8.00;;;;;;;;;;5144653;27;20497;-80
2021/10/19 01:38:00;;;;;;;11.17;7.93;;;;;;;;;;5144040;27;20481;-80
2021/10/19 01:40:28;;;;;;;11.57;7.43;;;;;;;;;;5144191;27;20456;-80
2021/10/19 01:42:56;;;;;;;12.50;8.03;;;;;;;;;;5143968;27;20450;-80
2021/10/19 01:45:23;;;;;;;13.93;8.40;;;;;;;;;;5143543;27;20520;-80
2021/10/19 01:47:51;;;;;;;12.43;7.50;;;;;;;;;;5143111;27;20807;-80
2021/10/19 01:50:20;;;;;;;14.93;8.00;;;;;;;;;;5147247;27;20540;-81
2021/10/19 01:52:50;;;;;;;11.00;8.10;;;;;;;;;;5146445;27;20465;-80
2021/10/19 01:55:18;;;;;;;11.13;8.17;;;;;;;;;;5144451;27;20449;-80
2021/10/19 01:57:47;;;;;;;12.83;8.90;;;;;;;;;;5142876;27;20537;-80
2021/10/19 02:00:14;;;;;;;10.07;7.23;;;;;;;;;;5143119;27;20779;-80
2021/10/19 02:02:42;;;;;;;12.10;8.93;;;;;;;;;;5143375;27;20871;-80
2021/10/19 02:05:10;;;;;;;12.70;9.47;;;;;;;;;;5143790;27;20564;-80
2021/10/19 02:07:40;;;;;;;14.30;8.77;;;;;;;;;;5142771;27;20686;-81
2021/10/19 02:10:11;;;;;;;13.37;7.93;;;;;;;;;;5144357;27;20525;-81
2021/10/19 02:12:39;;;;;;;11.00;9.33;;;;;;;;;;5143595;27;20941;-81
2021/10/19 02:15:08;;;;;;;13.40;9.20;;;;;;;;;;5144045;27;20499;-81
2021/10/19 02:17:36;;;;;;;12.37;8.10;;;;;;;;;;5143468;28;20577;-80
2021/10/19 02:20:03;;;;;;;12.80;9.37;;;;;;;;;;5150583;27;20445;-79
2021/10/19 02:22:31;;;;;;;13.10;8.37;;;;;;;;;;5148477;27;20445;-81
2021/10/19 02:24:59;;;;;;;13.23;9.43;;;;;;;;;;5149917;27;20461;-81
2021/10/19 02:27:28;;;;;;;12.20;9.43;;;;;;;;;;5150966;27;20430;-81
2021/10/19 02:29:56;;;;;;;14.90;10.70;;;;;;;;;;5150372;27;20453;-80
2021/10/19 02:32:25;;;;;;;10.73;7.93;;;;;;;;;;5151274;27;20501;-80
2021/10/19 02:34:53;;;;;;;13.13;7.80;;;;;;;;;;5150336;27;20760;-80
2021/10/19 02:37:20;;;;;;;16.53;8.77;;;;;;;;;;5150664;27;20924;-80
2021/10/19 02:39:49;;;;;;;12.30;8.53;;;;;;;;;;5149848;27;20790;-79
2021/10/19 02:42:17;;;;;;;14.23;8.27;;;;;;;;;;5151595;27;20779;-80
2021/10/19 02:44:46;;;;;;;14.03;8.30;;;;;;;;;;5149251;27;20441;-79
2021/10/19 02:47:14;;;;;;;10.07;7.40;;;;;;;;;;5150076;27;20838;-80
2021/10/19 02:49:42;;;;;;;11.07;7.87;;;;;;;;;;5149219;27;20752;-79
2021/10/19 02:52:09;;;;;;;12.37;8.23;;;;;;;;;;5147886;27;20460;-79
2021/10/19 02:54:40;;;;;;;11.73;8.43;;;;;;;;;;5147011;27;20714;-81
2021/10/19 02:57:09;;;;;;;16.93;9.90;;;;;;;;;;5148147;27;20505;-81
2021/10/19 02:59:36;;;;;;;17.87;9.63;;;;;;;;;;5149985;27;20451;-80
2021/10/19 03:02:06;;;;;;;19.77;9.87;;;;;;;;;;5150111;27;20454;-80
2021/10/19 03:04:35;;;;;;;13.27;9.83;;;;;;;;;;5148872;27;20458;-82
2021/10/19 03:07:02;;;;;;;13.40;9.37;;;;;;;;;;5148375;27;20513;-79
2021/10/19 03:09:30;;;;;;;14.23;10.50;;;;;;;;;;5148773;27;20541;-79
2021/10/19 03:11:58;;;;;;;17.97;10.20;;;;;;;;;;5150167;27;20445;-80
2021/10/19 03:14:25;;;;;;;18.50;9.63;;;;;;;;;;5149621;27;20489;-79
2021/10/19 03:16:53;;;;;;;15.53;9.73;;;;;;;;;;5150430;27;20524;-79
2021/10/19 03:19:22;;;;;;;17.07;11.30;;;;;;;;;;5150124;27;20557;-80
2021/10/19 03:21:51;;;;;;;15.60;10.87;;;;;;;;;;5150281;27;20457;-79
2021/10/19 03:24:18;;;;;;;16.53;11.00;;;;;;;;;;5150438;27;20477;-80
2021/10/19 03:26:46;;;;;;;18.47;10.07;;;;;;;;;;5150294;27;20849;-79
2021/10/19 03:29:14;;;;;;;17.50;10.57;;;;;;;;;;5150326;27;20501;-81
2021/10/19 03:31:42;;;;;;;12.60;9.67;;;;;;;;;;5144869;27;20445;-81
2021/10/19 03:34:09;;;;;;;13.77;9.50;;;;;;;;;;5146850;27;20557;-81
2021/10/19 03:36:39;;;;;;;17.23;9.20;;;;;;;;;;5146117;27;20462;-81
2021/10/19 03:39:07;;;;;;;16.00;9.63;;;;;;;;;;5146878;27;20545;-82
2021/10/19 03:41:34;;;;;;;13.90;9.23;;;;;;;;;;5146705;27;20799;-81
2021/10/19 03:44:02;;;;;;;17.50;9.40;;;;;;;;;;5146633;27;20457;-81
2021/10/19 03:46:30;;;;;;;14.60;10.50;;;;;;;;;;5147137;27;20541;-80
2021/10/19 03:48:58;;;;;;;15.50;10.30;;;;;;;;;;5146596;27;20464;-81
2021/10/19 03:51:25;;;;;;;14.77;10.03;;;;;;;;;;5147008;27;20456;-81
2021/10/19 03:53:55;;;;;;;16.30;9.80;;;;;;;;;;5147874;27;20548;-81
2021/10/19 03:56:24;;;;;;;19.53;10.10;;;;;;;;;;5145583;27;20526;-80
2021/10/19 03:58:52;;;;;;;17.63;10.50;;;;;;;;;;5147498;27;20489;-79
2021/10/19 04:01:20;;;;;;;17.10;11.60;;;;;;;;;;5145655;27;20446;-80
2021/10/19 04:03:51;;;;;;;15.83;10.60;;;;;;;;;;5146299;27;20468;-78
2021/10/19 04:06:18;;;;;;;17.57;10.37;;;;;;;;;;5146067;27;20460;-80
2021/10/19 04:08:46;;;;;;;18.97;10.57;;;;;;;;;;5145241;27;20450;-80
2021/10/19 04:11:15;;;;;;;19.97;13.40;;;;;;;;;;5146982;27;20452;-80
2021/10/19 04:13:43;;;;;;;19.00;11.33;;;;;;;;;;5145369;27;20457;-80
2021/10/19 04:16:13;;;;;;;16.83;10.67;;;;;;;;;;5145675;27;20468;-79
2021/10/19 04:18:41;;;;;;;17.27;11.23;;;;;;;;;;5146803;27;20494;-81
2021/10/19 04:21:08;;;;;;;16.80;10.63;;;;;;;;;;5145345;27;20453;-79
2021/10/19 04:23:36;;;;;;;18.37;11.93;;;;;;;;;;5145923;27;20485;-81
2021/10/19 04:26:04;;;;;;;16.10;10.97;;;;;;;;;;5144646;27;20452;-81
2021/10/19 04:28:37;;;;;;;16.17;10.77;;;;;;;;;;5146134;27;20453;-81
2021/10/19 04:31:05;;;;;;;16.70;10.03;;;;;;;;;;5147168;27;20450;-80
2021/10/19 04:33:39;;;;;;;16.40;11.70;;;;;;;;;;5145983;27;20898;-81
2021/10/19 04:36:06;;;;;;;15.17;10.37;;;;;;;;;;5145299;27;20513;-80
2021/10/19 04:38:34;;;;;;;20.60;11.30;;;;;;;;;;5145666;27;20772;-80
2021/10/19 04:41:02;;;;;;;17.90;11.53;;;;;;;;;;5146035;27;20476;-81
2021/10/19 04:43:30;;;;;;;15.07;9.70;;;;;;;;;;5143422;27;20480;-79
2021/10/19 04:45:59;;;;;;;16.87;11.23;;;;;;;;;;5145835;27;20446;-81
2021/10/19 04:48:27;;;;;;;16.70;11.27;;;;;;;;;;5145230;27;20456;-81
2021/10/19 04:50:55;;;;;;;17.93;11.00;;;;;;;;;;5143808;27;20442;-81
2021/10/19 04:53:23;;;;;;;16.17;10.53;;;;;;;;;;5144213;27;20446;-80
2021/10/19 04:55:51;;;;;;;13.97;9.20;;;;;;;;;;5143829;27;20458;-80
2021/10/19 04:58:18;;;;;;;16.93;11.37;;;;;;;;;;5145344;27;20493;-81
2021/10/19 05:00:47;;;;;;;13.33;9.90;;;;;;;;;;5144369;27;20471;-80
2021/10/19 05:03:17;;;;;;;20.33;10.30;;;;;;;;;;5144938;27;20450;-79
2021/10/19 05:05:45;;;;;;;16.97;11.87;;;;;;;;;;5145315;27;20470;-79
2021/10/19 05:08:12;;;;;;;15.43;10.77;;;;;;;;;;5142203;27;20444;-80
2021/10/19 05:10:42;;;;;;;17.93;11.07;;;;;;;;;;5144636;27;20960;-81
2021/10/19 05:13:13;;;;;;;19.67;12.63;;;;;;;;;;5144577;27;20502;-80
2021/10/19 05:15:41;;;;;;;21.10;12.30;;;;;;;;;;5143843;27;20481;-79
2021/10/19 05:18:09;;;;;;;13.83;9.97;;;;;;;;;;5143919;27;20569;-80
2021/10/19 05:20:38;;;;;;;15.47;12.07;;;;;;;;;;5144251;27;20468;-80
2021/10/19 05:23:06;;;;;;;19.60;12.80;;;;;;;;;;5143676;27;20528;-80
2021/10/19 05:25:33;;;;;;;22.53;10.73;;;;;;;;;;5143963;27;20486;-78
2021/10/19 05:28:01;;;;;;;15.33;9.97;;;;;;;;;;5143158;27;20481;-79
2021/10/19 05:30:29;;;;;;;18.47;11.57;;;;;;;;;;5144066;27;20442;-80
2021/10/19 05:32:56;;;;;;;15.73;10.93;;;;;;;;;;5143679;27;20446;-79
2021/10/19 05:35:24;;;;;;;16.07;9.83;;;;;;;;;;5142613;27;20526;-79
2021/10/19 05:37:56;;;;;;;14.37;10.70;;;;;;;;;;5141768;27;20752;-80
2021/10/19 05:40:24;;;;;;;13.50;10.27;;;;;;;;;;5141444;27;20442;-79
2021/10/19 05:42:52;;;;;;;17.20;11.47;;;;;;;;;;5142378;27;20756;-80
2021/10/19 05:45:19;;;;;;;19.40;11.60;;;;;;;;;;5142520;27;20805;-81
2021/10/19 05:47:47;;;;;;;15.67;10.43;;;;;;;;;;5142448;27;20795;-78
2021/10/19 05:50:16;;;;;;;18.77;12.10;;;;;;;;;;5141799;27;20469;-80
2021/10/19 05:52:45;;;;;;;21.77;12.97;;;;;;;;;;5138123;27;20515;-80
2021/10/19 05:55:15;;;;;;;15.83;11.83;;;;;;;;;;5120210;28;20445;-80
2021/10/19 05:57:42;;;;;;;17.63;10.17;;;;;;;;;;5122919;28;20443;-79
2021/10/19 06:00:15;;;;;;;17.90;11.27;;;;;;;;;;5121279;28;20465;-79
2021/10/19 06:02:42;;;;;;;15.30;10.57;;;;;;;;;;5130273;27;20503;-80
2021/10/19 06:05:10;;;;;;;16.60;11.63;;;;;;;;;;5143287;27;20889;-79
2021/10/19 06:07:38;;;;;;;16.70;11.70;;;;;;;;;;5144350;27;20442;-80
2021/10/19 06:10:07;;;;;;;18.23;11.60;;;;;;;;;;5143731;27;20461;-81
2021/10/19 06:12:36;;;;;;;15.80;11.23;;;;;;;;;;5142752;27;20460;-79
2021/10/19 06:15:10;;;;;;;15.87;11.60;;;;;;;;;;5141366;27;20432;-80
2021/10/19 06:17:38;;;;;;;18.40;11.73;;;;;;;;;;5141853;28;20448;-78
2021/10/19 06:20:06;;;;;;;18.73;12.17;;;;;;;;;;5142496;28;20530;-80
2021/10/19 06:22:39;;;;;;;18.97;11.10;;;;;;;;;;5141897;28;20975;-81
2021/10/19 06:25:12;;;;;;;15.07;11.53;;;;;;;;;;5143012;27;20478;-81
2021/10/19 06:27:41;;;;;;;23.47;10.90;;;;;;;;;;5141606;27;20450;-80
2021/10/19 06:30:10;;;;;;;15.47;10.50;;;;;;;;;;5141873;28;20933;-79
2021/10/19 06:32:40;;;;;;;17.67;10.90;;;;;;;;;;5141567;28;20466;-80
2021/10/19 06:35:09;;;;;;;17.53;10.70;;;;;;;;;;5141904;27;20442;-79
2021/10/19 06:37:38;;;;;;;14.33;10.63;;;;;;;;;;5141228;27;20542;-79
2021/10/19 06:40:07;;;;;;;19.90;10.67;;;;;;;;;;5141678;28;20612;-78
2021/10/19 06:42:35;;;;;;;19.00;11.80;;;;;;;;;;5137010;27;20486;-78
2021/10/19 06:45:04;;;;;;;18.03;9.87;;;;;;;;;;5123793;28;20839;-80
2021/10/19 06:47:32;;;;;;;20.30;11.77;;;;;;;;;;5116963;28;20733;-77
2021/10/19 06:50:01;;;;;;;16.10;10.23;;;;;;;;;;5127170;28;20442;-78
2021/10/19 06:52:32;;;;;;;18.07;10.10;;;;;;;;;;5140114;28;20450;-79
2021/10/19 06:55:00;;;;;;;16.10;11.13;;;;;;;;;;5139039;28;20452;-80
2021/10/19 06:57:30;;;;;;;15.10;10.87;;;;;;;;;;5137482;28;20450;-79
2021/10/19 06:59:59;;;;;;;14.30;10.57;;;;;;;;;;5152952;27;20477;-79
2021/10/19 07:02:29;;;;;;;15.40;11.30;;;;;;;;;;5146733;27;20448;-77
2021/10/19 07:04:57;;;;;;;14.20;10.70;;;;;;;;;;5140796;27;20450;-78
2021/10/19 07:07:24;;;;;;;100.23;58.67;;;;;;;;;;5156065;27;20453;-78
2021/10/19 07:09:54;;;;;;;16.37;10.83;;;;;;;;;;5145340;27;20529;-77
2021/10/19 07:12:22;;;;;;;17.27;11.30;;;;;;;;;;5156195;27;20605;-77
2021/10/19 07:14:49;;;;;;;14.97;9.83;;;;;;;;;;5141712;27;20442;-78
2021/10/19 07:17:18;;;;;;;14.20;11.20;;;;;;;;;;5157202;27;20448;-80
2021/10/19 07:19:47;;;;;;;16.60;11.20;;;;;;;;;;5147541;27;20480;-79
2021/10/19 07:22:17;;;;;;;15.23;11.40;;;;;;;;;;5146693;27;20544;-79
2021/10/19 07:24:45;;;;;;;17.03;11.73;;;;;;;;;;5142962;27;20450;-79
2021/10/19 07:27:16;;;;;;;17.10;10.40;;;;;;;;;;5140813;27;20887;-80
2021/10/19 07:29:45;;;;;;;13.53;9.93;;;;;;;;;;5137103;27;20445;-77
2021/10/19 07:32:14;;;;;;;14.90;10.30;;;;;;;;;;5153457;27;20458;-85
2021/10/19 07:34:42;;;;;;;16.50;10.23;;;;;;;;;;5142400;27;20449;-78
2021/10/19 07:37:15;;;;;;;15.40;9.77;;;;;;;;;;5143398;27;20540;-79
2021/10/19 07:39:43;;;;;;;13.83;9.93;;;;;;;;;;5127339;27;20477;-78
2021/10/19 07:42:11;;;;;;;19.03;11.83;;;;;;;;;;5143576;27;20454;-80
2021/10/19 07:44:40;;;;;;;15.27;9.67;;;;;;;;;;5142884;27;20474;-81
2021/10/19 07:47:08;;;;;;;14.97;10.10;;;;;;;;;;5135704;27;20466;-80
2021/10/19 07:49:43;;;;;;;14.60;10.80;;;;;;;;;;5126878;27;20543;-82
2021/10/19 07:52:12;;;;;;;16.83;11.83;;;;;;;;;;5161384;27;20444;-80
2021/10/19 07:54:40;;;;;;;16.63;10.37;;;;;;;;;;5131865;27;20465;-80
2021/10/19 07:57:09;;;;;;;15.40;10.67;;;;;;;;;;5133731;27;20485;-83
2021/10/19 07:59:38;;;;;;;17.53;10.93;;;;;;;;;;5140255;27;20485;-81
2021/10/19 08:02:06;;;;;;;12.33;9.60;;;;;;;;;;5126881;27;20455;-80
2021/10/19 08:04:34;;;;;;;17.73;10.63;;;;;;;;;;5138017;27;20468;-81
2021/10/19 08:07:09;;;;;;;16.50;10.97;;;;;;;;;;5138318;27;20482;-79
2021/10/19 08:09:40;;;;;;;16.50;11.10;;;;;;;;;;5141971;27;20454;-80
2021/10/19 08:12:08;;;;;;;14.37;9.27;;;;;;;;;;5146431;27;20541;-79
2021/10/19 08:14:37;;;;;;;15.23;9.27;;;;;;;;;;5145881;27;20477;-80
2021/10/19 08:17:05;;;;;;;15.40;12.20;;;;;;;;;;5143418;27;20547;-80
2021/10/19 08:19:33;;;;;;;15.87;10.47;;;;;;;;;;5143239;27;20564;-77
2021/10/19 08:22:01;;;;;;;15.50;10.10;;;;;;;;;;5161549;27;20442;-80
2021/10/19 08:24:29;;;;;;;14.77;9.83;;;;;;;;;;5140718;27;20529;-80
2021/10/19 08:26:58;;;;;;;19.37;10.90;;;;;;;;;;5148193;27;20442;-80
2021/10/19 08:29:27;;;;;;;15.67;10.33;;;;;;;;;;5143855;27;20489;-80
2021/10/19 08:31:55;;;;;;;15.23;9.50;;;;;;;;;;5139435;27;20472;-82
2021/10/19 08:34:22;;;;;;;15.57;11.37;;;;;;;;;;5144413;27;20471;-80
2021/10/19 08:36:51;;;;;;;19.83;11.80;;;;;;;;;;5146027;27;20495;-80
2021/10/19 08:39:19;;;;;;;13.47;9.40;;;;;;;;;;5141643;27;20549;-80
2021/10/19 08:41:47;;;;;;;12.73;9.33;;;;;;;;;;5136861;27;20551;-83
2021/10/19 08:44:16;;;;;;;13.70;9.57;;;;;;;;;;5149830;27;20497;-80
2021/10/19 08:46:44;;;;;;;15.30;9.20;;;;;;;;;;5135159;27;20512;-80
2021/10/19 08:49:12;;;;;;;16.10;10.03;;;;;;;;;;5143477;27;20942;-79
2021/10/19 08:51:41;;;;;;;14.83;9.90;;;;;;;;;;5145490;27;20466;-79
2021/10/19 08:54:09;;;;;;;12.43;8.77;;;;;;;;;;5149957;27;20456;-80
2021/10/19 08:56:38;;;;;;;12.97;8.97;;;;;;;;;;5149781;27;20861;-82
2021/10/19 08:59:20;;;;;;;14.97;9.27;;;;;;;;;;5148239;27;20474;-80
2021/10/19 09:01:50;;;;;;;13.77;9.43;;;;;;;;;;5142526;27;20793;-81
2021/10/19 09:04:28;;;;;;;14.20;9.40;;;;;;;;;;5159621;27;20586;-85
2021/10/19 09:06:58;;;;;;;14.03;8.47;;;;;;;;;;5137355;27;20470;-81
2021/10/19 09:09:27;;;;;;;12.97;9.40;;;;;;;;;;5147902;27;20458;-83
2021/10/19 09:11:58;;;;;;;11.27;8.20;;;;;;;;;;5144291;27;20507;-81
2021/10/19 09:17:55;;;;;;;18.47;8.97;;;;;;;;;;5144818;27;20448;-79
2021/10/19 09:20:23;;;;;;;12.07;8.80;;;;;;;;;;5118612;27;20494;-81
2021/10/19 09:22:58;;;;;;;12.53;9.07;;;;;;;;;;5120673;27;20470;-83
2021/10/19 09:25:27;;;;;;;15.30;11.30;;;;;;;;;;5115633;27;20461;-82
2021/10/19 09:28:01;;;;;;;12.33;8.30;;;;;;;;;;5125349;28;20483;-83
2021/10/19 09:30:40;;;;;;;13.00;8.67;;;;;;;;;;5121007;27;20481;-80
2021/10/19 09:33:09;;;;;;;12.63;7.70;;;;;;;;;;5120003;27;20458;-83
2021/10/19 09:35:37;;;;;;;12.53;8.33;;;;;;;;;;5119704;27;20451;-82
2021/10/19 09:38:08;;;;;;;14.10;9.20;;;;;;;;;;5126082;27;20519;-82
2021/10/19 09:40:37;;;;;;;15.27;9.20;;;;;;;;;;5124037;27;20481;-84
2021/10/19 09:43:05;;;;;;;11.10;8.47;;;;;;;;;;5107833;28;20513;-82
2021/10/19 09:45:42;;;;;;;13.57;8.70;;;;;;;;;;5131473;27;20446;-81
2021/10/19 09:48:22;;;;;;;10.93;8.30;;;;;;;;;;5122710;28;20460;-83
2021/10/19 09:51:00;;;;;;;11.50;7.80;;;;;;;;;;5121987;27;20728;-80
2021/10/19 09:53:29;;;;;;;15.90;8.77;;;;;;;;;;5117680;28;20753;-79
2021/10/19 09:55:57;;;;;;;12.20;8.30;;;;;;;;;;5120115;27;20530;-80
2021/10/19 09:58:30;;;;;;;10.80;7.37;;;;;;;;;;5111886;28;20455;-81
2021/10/19 10:00:59;;;;;;;14.47;8.53;;;;;;;;;;5115352;28;20478;-80
2021/10/19 10:03:29;;;;;;;22.20;11.30;;;;;;;;;;5126116;28;20762;-80
2021/10/19 10:05:57;;;;;;;12.33;8.77;;;;;;;;;;5123163;27;20463;-80
2021/10/19 10:08:26;;;;;;;11.73;8.57;;;;;;;;;;5112299;27;20468;-81
2021/10/19 10:10:58;;;;;;;14.40;8.53;;;;;;;;;;5120101;28;20467;-81
2021/10/19 10:13:26;;;;;;;11.43;8.03;;;;;;;;;;5116390;28;20848;-81
2021/10/19 10:15:57;;;;;;;11.90;9.60;;;;;;;;;;5117432;28;20436;-79
2021/10/19 10:18:41;;;;;;;11.73;7.60;;;;;;;;;;5122500;28;21140;-81
2021/10/19 10:21:15;;;;;;;12.37;7.17;;;;;;;;;;5144012;27;20473;-82
2021/10/19 10:23:43;;;;;;;12.00;7.50;;;;;;;;;;5138553;27;20450;-80
2021/10/19 10:26:22;;;;;;;12.83;9.50;;;;;;;;;;5146517;27;20513;-80
2021/10/19 10:28:50;;;;;;;15.70;10.23;;;;;;;;;;5145381;27;20465;-81
2021/10/19 10:31:26;;;;;;;12.13;8.73;;;;;;;;;;5149572;27;20442;-80
2021/10/19 10:34:04;;;;;;;13.43;9.73;;;;;;;;;;5144139;27;20526;-80
2021/10/19 10:36:42;;;;;;;10.30;8.10;;;;;;;;;;5148034;27;20453;-80
2021/10/19 10:39:10;;;;;;;12.53;8.07;;;;;;;;;;5148358;27;20534;-80
2021/10/19 10:41:38;;;;;;;13.10;8.90;;;;;;;;;;5146573;27;20450;-80
2021/10/19 10:44:09;;;;;;;8.43;7.17;;;;;;;;;;5142169;27;20467;-81
2021/10/19 10:46:46;;;;;;;9.80;7.20;;;;;;;;;;5151420;27;20442;-81
2021/10/19 10:49:15;;;;;;;9.97;6.90;;;;;;;;;;5154277;27;20921;-81
2021/10/19 10:51:45;;;;;;;9.87;7.03;;;;;;;;;;5157832;27;20481;-80
2021/10/19 10:54:16;;;;;;;9.70;6.60;;;;;;;;;;5139529;27;20451;-80
2021/10/19 10:56:45;;;;;;;14.03;6.43;;;;;;;;;;5132785;27;20796;-79
2021/10/19 10:59:23;;;;;;;7.40;5.33;;;;;;;;;;5145658;27;20446;-80
2021/10/19 11:01:51;;;;;;;13.00;7.33;;;;;;;;;;5139871;27;20481;-80
2021/10/19 11:04:20;;;;;;;7.70;6.00;;;;;;;;;;5147660;27;20492;-80
2021/10/19 11:06:48;;;;;;;9.80;6.33;;;;;;;;;;5142561;27;20454;-80
2021/10/19 11:09:17;;;;;;;8.50;6.07;;;;;;;;;;5150224;27;20459;-79
2021/10/19 11:11:46;;;;;;;18.90;7.37;;;;;;;;;;5135545;27;20514;-81
2021/10/19 11:14:15;;;;;;;9.60;7.07;;;;;;;;;;5146864;27;20457;-81
2021/10/19 11:16:45;;;;;;;8.23;6.60;;;;;;;;;;5144313;27;20450;-79
2021/10/19 11:19:17;;;;;;;9.80;6.33;;;;;;;;;;5146180;27;20493;-79
2021/10/19 11:21:50;;;;;;;7.77;5.73;;;;;;;;;;5150942;27;20833;-79
2021/10/19 11:24:19;;;;;;;7.20;4.73;;;;;;;;;;5143169;27;20489;-80
2021/10/19 11:26:47;;;;;;;7.60;6.10;;;;;;;;;;5135584;27;20441;-80
2021/10/19 11:29:15;;;;;;;9.23;5.73;;;;;;;;;;5153784;27;20543;-79
2021/10/19 11:31:51;;;;;;;10.83;7.37;;;;;;;;;;5143758;27;20456;-79
2021/10/19 11:34:23;;;;;;;7.43;5.70;;;;;;;;;;5144489;27;20518;-81
2021/10/19 11:36:57;;;;;;;10.00;5.63;;;;;;;;;;5143495;27;20545;-81
2021/10/19 11:39:38;;;;;;;7.07;5.27;;;;;;;;;;5139876;27;20457;-80
2021/10/19 11:42:14;;;;;;;9.33;5.30;;;;;;;;;;5144338;27;20453;-80
2021/10/19 11:44:42;;;;;;;10.70;5.67;;;;;;;;;;5143477;27;20506;-83
2021/10/19 11:47:11;;;;;;;7.23;5.50;;;;;;;;;;5147268;27;20477;-82
2021/10/19 11:49:41;;;;;;;10.00;5.90;;;;;;;;;;5159437;27;20597;-80
2021/10/19 11:52:11;;;;;;;8.10;5.07;;;;;;;;;;5147597;27;20480;-81
2021/10/19 11:54:39;;;;;;;8.70;6.07;;;;;;;;;;5159961;27;20449;-79
2021/10/19 11:57:11;;;;;;;8.73;6.10;;;;;;;;;;5164271;27;20466;-82
2021/10/19 11:59:42;;;;;;;6.87;5.30;;;;;;;;;;5163956;27;20537;-82
2021/10/19 12:02:10;;;;;;;7.37;5.77;;;;;;;;;;5141750;27;20431;-81
2021/10/19 12:04:42;;;;;;;9.03;5.97;;;;;;;;;;5131563;27;20590;-80
2021/10/19 12:07:27;;;;;;;8.80;6.80;;;;;;;;;;5144223;27;20430;-80
2021/10/19 12:09:55;;;;;;;9.20;5.97;;;;;;;;;;5138606;27;20451;-81
2021/10/19 12:12:27;;;;;;;9.67;7.10;;;;;;;;;;5128299;27;20447;-80
2021/10/19 12:14:57;;;;;;;7.83;5.60;;;;;;;;;;5136236;27;20515;-80
2021/10/19 12:17:25;;;;;;;7.50;6.47;;;;;;;;;;5143955;27;20449;-82
2021/10/19 12:19:54;;;;;;;7.67;5.00;;;;;;;;;;5130301;27;20483;-81
2021/10/19 12:22:45;;;;;;;7.37;5.90;;;;;;;;;;5139885;27;20442;-81
2021/10/19 12:25:15;;;;;;;11.33;6.63;;;;;;;;;;5147927;27;21064;-79
2021/10/19 12:27:43;;;;;;;7.73;6.17;;;;;;;;;;5130059;27;20483;-81
2021/10/19 12:30:16;;;;;;;11.37;7.30;;;;;;;;;;5135063;27;20477;-80
2021/10/19 12:32:44;;;;;;;12.27;6.03;;;;;;;;;;5136279;27;20459;-80
2021/10/19 12:35:16;;;;;;;11.20;6.37;;;;;;;;;;5132997;27;20454;-79
2021/10/19 12:37:46;;;;;;;11.60;7.17;;;;;;;;;;5127922;27;20466;-81
2021/10/19 12:40:35;;;;;;;10.13;7.40;;;;;;;;;;5130338;27;20474;-80
2021/10/19 12:43:03;;;;;;;10.53;7.07;;;;;;;;;;5137773;27;20454;-80
2021/10/19 12:45:32;;;;;;;9.70;5.40;;;;;;;;;;5141629;27;20877;-80
2021/10/19 12:48:03;;;;;;;9.37;6.80;;;;;;;;;;5137763;27;20522;-79
2021/10/19 12:50:31;;;;;;;10.93;7.40;;;;;;;;;;5138964;27;21153;-82
2021/10/19 12:53:01;;;;;;;17.90;10.93;;;;;;;;;;5137169;27;20478;-80
2021/10/19 12:55:29;;;;;;;13.27;8.23;;;;;;;;;;5131131;27;20910;-81
2021/10/19 12:57:57;;;;;;;14.30;8.23;;;;;;;;;;5130491;27;20471;-82
2021/10/19 13:00:25;;;;;;;9.43;7.77;;;;;;;;;;5128513;27;20471;-81
2021/10/19 13:02:53;;;;;;;8.90;6.63;;;;;;;;;;5135962;27;20490;-82
2021/10/19 13:05:21;;;;;;;12.63;6.97;;;;;;;;;;5138015;27;20462;-82
2021/10/19 13:07:49;;;;;;;9.37;6.50;;;;;;;;;;5145974;27;20498;-81
2021/10/19 13:10:18;;;;;;;8.53;6.40;;;;;;;;;;5154088;27;20523;-84
2021/10/19 13:12:46;;;;;;;7.77;5.70;;;;;;;;;;5142100;27;20490;-83
2021/10/19 13:15:15;;;;;;;8.30;6.40;;;;;;;;;;5127967;27;20483;-79
2021/10/19 13:17:44;;;;;;;8.80;6.87;;;;;;;;;;5141128;27;20518;-83
2021/10/19 13:20:14;;;;;;;12.43;7.90;;;;;;;;;;5143054;27;20729;-83
2021/10/19 13:22:43;;;;;;;8.60;6.00;;;;;;;;;;5146637;27;20459;-83
2021/10/19 13:25:11;;;;;;;7.50;6.37;;;;;;;;;;5131320;27;20457;-81
2021/10/19 13:27:43;;;;;;;7.23;5.27;;;;;;;;;;5144447;27;20729;-81
2021/10/19 13:30:13;;;;;;;7.90;6.53;;;;;;;;;;5145497;27;20450;-81
2021/10/19 13:32:42;;;;;;;10.73;6.13;;;;;;;;;;5144642;27;20830;-81
2021/10/19 13:35:14;;;;;;;10.33;6.57;;;;;;;;;;5140908;27;20450;-82
2021/10/19 13:37:43;;;;;;;7.30;5.20;;;;;;;;;;5136953;27;20457;-81
2021/10/19 13:40:12;;;;;;;6.70;5.43;;;;;;;;;;5145866;27;20450;-81
2021/10/19 13:42:42;;;;;;;7.10;4.43;;;;;;;;;;5142899;27;20454;-82
2021/10/19 13:45:12;;;;;;;6.60;5.20;;;;;;;;;;5123633;28;20511;-82
2021/10/19 13:47:44;;;;;;;7.13;5.70;;;;;;;;;;5126270;27;20491;-81
2021/10/19 13:50:12;;;;;;;12.63;6.33;;;;;;;;;;5140400;27;20438;-80
2021/10/19 13:52:43;;;;;;;8.77;5.77;;;;;;;;;;5159291;27;20467;-80
2021/10/19 13:55:11;;;;;;;10.53;5.73;;;;;;;;;;5154645;27;20445;-81
2021/10/19 13:57:40;;;;;;;8.43;5.67;;;;;;;;;;5140717;27;20454;-81
2021/10/19 14:00:13;;;;;;;9.20;6.00;;;;;;;;;;5142176;27;20438;-83
2021/10/19 14:02:48;;;;;;;7.90;6.63;;;;;;;;;;5141097;27;20508;-80
2021/10/19 14:05:16;;;;;;;9.97;6.03;;;;;;;;;;5143929;27;20441;-80
2021/10/19 14:07:43;;;;;;;10.30;8.03;;;;;;;;;;5152957;27;20492;-81
2021/10/19 14:10:11;;;;;;;9.20;5.77;;;;;;;;;;5142333;27;20858;-81
2021/10/19 14:12:39;;;;;;;7.13;5.23;;;;;;;;;;5142814;27;20514;-81
2021/10/19 14:15:11;;;;;;;10.80;7.37;;;;;;;;;;5135720;27;20431;-81
2021/10/19 14:17:39;;;;;;;8.33;6.57;;;;;;;;;;5142514;27;20449;-83
2021/10/19 14:20:07;;;;;;;8.47;5.83;;;;;;;;;;5141815;28;20807;-80
2021/10/19 14:22:36;;;;;;;9.67;6.27;;;;;;;;;;5139438;28;20477;-82
2021/10/19 14:25:04;;;;;;;10.53;6.10;;;;;;;;;;5142022;28;20465;-81
2021/10/19 14:27:32;;;;;;;8.47;6.07;;;;;;;;;;5140177;28;20442;-80
2021/10/19 14:29:59;;;;;;;8.57;6.10;;;;;;;;;;5138834;28;20585;-81
2021/10/19 14:32:28;;;;;;;8.47;6.57;;;;;;;;;;5129418;28;21151;-81
2021/10/19 14:34:57;;;;;;;7.77;6.07;;;;;;;;;;5138142;27;20551;-81
2021/10/19 14:37:27;;;;;;;11.07;7.47;;;;;;;;;;5151951;27;20457;-82
2021/10/19 14:39:54;;;;;;;13.20;8.70;;;;;;;;;;5145367;28;20473;-82
2021/10/19 14:42:24;;;;;;;13.50;7.23;;;;;;;;;;5137139;28;20469;-82
2021/10/19 14:44:54;;;;;;;8.80;5.83;;;;;;;;;;5161099;27;20486;-83